Lombard, Illinois
Current Conditions -  °F | °C
As of 7:51 AM on Thursday 18 Dec 2014 (Local Time) from KORD Reporting Station
Broken Clouds Broken Clouds  
Wind Chill: 12°   Ceiling: 21000
Heat Index: 20°   Visibility: 10mi
Dew Point: 15°   Wind: 6mph
Humidity: 81%   Direction: 260°W
Pressure: 30.29"   Gusts: NA
Location:  41.87°N, 88.01°W
Report Text: KORD 181351Z 26005KT 10SM FEW022 FEW170 BKN210 M07/M09 A3029 RMK AO2 SLP265 T10671094
Loading
Personal Weather Stations






























Interactive Weather Map New forecast layout! Learn more

10-Day Weather Forecast

Advertisements
Track Severe Weather on mobile